createdAt,value
2023-01-13T00:00:53.201Z,3.80
2023-01-13T00:03:20.752Z,2.70
2023-01-13T00:05:47.835Z,2.33
2023-01-13T00:08:14.759Z,2.40
2023-01-13T00:10:41.903Z,2.50
2023-01-13T00:13:09.424Z,2.50
2023-01-13T00:15:36.495Z,2.90
2023-01-13T00:18:03.559Z,2.65
2023-01-13T00:20:30.672Z,2.47
2023-01-13T00:22:59.006Z,2.53
2023-01-13T00:25:26.354Z,2.35
2023-01-13T00:27:53.443Z,2.15
2023-01-13T00:30:20.550Z,2.33
2023-01-13T00:32:47.669Z,2.42
2023-01-13T00:35:14.855Z,2.50
2023-01-13T00:37:41.984Z,2.47
2023-01-13T00:40:09.770Z,2.05
2023-01-13T00:42:55.191Z,2.80
2023-01-13T00:45:22.288Z,2.38
2023-01-13T00:47:49.230Z,2.65
2023-01-13T00:50:16.611Z,2.25
2023-01-13T00:52:43.579Z,2.10
2023-01-13T00:55:10.751Z,2.03
2023-01-13T00:57:37.801Z,2.00
2023-01-13T01:00:05.132Z,2.08
2023-01-13T01:02:32.126Z,2.28
2023-01-13T01:05:00.173Z,2.20
2023-01-13T01:07:27.146Z,2.03
2023-01-13T01:09:54.237Z,2.05
2023-01-13T01:12:21.202Z,2.03
2023-01-13T01:14:48.950Z,1.98
2023-01-13T01:17:15.917Z,1.90
2023-01-13T01:19:43.000Z,2.40
2023-01-13T01:22:10.103Z,2.10
2023-01-13T01:24:37.248Z,2.00
2023-01-13T01:27:04.347Z,1.73
2023-01-13T01:29:31.289Z,2.17
2023-01-13T01:31:59.266Z,1.85
2023-01-13T01:34:26.163Z,2.25
2023-01-13T01:36:53.303Z,2.30
2023-01-13T01:39:20.202Z,1.58
2023-01-13T01:42:07.562Z,1.90
2023-01-13T01:44:54.771Z,1.85
2023-01-13T01:47:23.548Z,1.63
2023-01-13T01:49:51.311Z,1.80
2023-01-13T01:52:26.395Z,1.92
2023-01-13T01:55:08.938Z,1.77
2023-01-13T01:57:39.075Z,1.50
2023-01-13T02:00:06.795Z,1.77
2023-01-13T02:02:40.131Z,1.85
2023-01-13T02:05:07.453Z,1.85
2023-01-13T02:07:36.435Z,1.52
2023-01-13T02:10:07.277Z,1.65
2023-01-13T02:12:35.290Z,2.10
2023-01-13T02:15:04.571Z,2.03
2023-01-13T02:17:56.971Z,1.70
2023-01-13T02:20:27.028Z,1.55
2023-01-13T02:23:49.757Z,2.10
2023-01-13T02:26:45.692Z,2.00
2023-01-13T02:29:53.431Z,1.80
2023-01-13T02:32:25.849Z,1.50
2023-01-13T02:35:09.580Z,1.80
2023-01-13T02:37:42.388Z,1.50
2023-01-13T02:40:16.240Z,1.38
2023-01-13T02:43:23.001Z,1.40
2023-01-13T02:45:55.216Z,1.70
2023-01-13T02:48:24.694Z,1.63
2023-01-13T02:51:01.121Z,2.00
2023-01-13T02:53:40.190Z,1.73
2023-01-13T02:56:10.621Z,1.27
2023-01-13T02:58:42.103Z,2.08
2023-01-13T03:01:09.661Z,1.73
2023-01-13T03:03:36.870Z,1.98
2023-01-13T03:06:18.844Z,1.77
2023-01-13T03:08:53.667Z,1.60
2023-01-13T03:11:21.447Z,1.73
2023-01-13T03:14:06.171Z,1.75
2023-01-13T03:16:48.683Z,1.83
2023-01-13T03:19:24.918Z,2.00
2023-01-13T03:22:13.586Z,1.80
2023-01-13T03:24:45.311Z,2.38
2023-01-13T03:27:20.691Z,1.80
2023-01-13T03:30:03.900Z,2.20
2023-01-13T03:32:44.584Z,2.17
2023-01-13T03:35:26.019Z,3.13
2023-01-13T03:38:03.801Z,2.40
2023-01-13T03:40:35.379Z,2.75
2023-01-13T03:43:32.786Z,3.10
2023-01-13T03:46:11.139Z,2.90
2023-01-13T03:48:42.743Z,2.75
2023-01-13T03:51:15.572Z,3.15
2023-01-13T03:53:55.989Z,2.65
2023-01-13T03:56:30.165Z,3.25
2023-01-13T03:58:58.689Z,2.97
2023-01-13T04:01:33.193Z,3.10
2023-01-13T04:04:08.523Z,2.65
2023-01-13T04:06:47.572Z,2.30
2023-01-13T04:09:27.633Z,2.55
2023-01-13T04:12:01.724Z,2.25
2023-01-13T04:14:29.751Z,2.55
2023-01-13T04:16:57.349Z,2.20
2023-01-13T04:19:24.536Z,2.42
2023-01-13T04:21:51.567Z,2.25
2023-01-13T04:24:18.698Z,2.85
2023-01-13T04:26:45.683Z,2.55
2023-01-13T04:29:15.397Z,2.45
2023-01-13T04:31:43.160Z,2.60
2023-01-13T04:34:13.118Z,2.90
2023-01-13T04:36:40.396Z,2.92
2023-01-13T04:39:07.394Z,3.00
2023-01-13T04:41:54.468Z,3.40
2023-01-13T04:44:21.531Z,3.33
2023-01-13T04:46:48.641Z,3.38
2023-01-13T04:49:15.812Z,3.20
2023-01-13T04:51:42.839Z,3.58
2023-01-13T04:54:11.580Z,2.80
2023-01-13T04:56:39.003Z,3.40
2023-01-13T04:59:06.087Z,2.97
2023-01-13T05:01:33.321Z,3.67
2023-01-13T05:04:00.287Z,3.25
2023-01-13T05:06:27.475Z,3.70
2023-01-13T05:08:54.610Z,3.90
2023-01-13T05:11:39.964Z,4.40
2023-01-13T05:14:25.658Z,4.20
2023-01-13T05:17:00.645Z,4.35
2023-01-13T05:19:35.519Z,4.80
2023-01-13T05:22:21.474Z,3.60
2023-01-13T05:25:07.279Z,4.32
2023-01-13T05:27:34.659Z,4.28
2023-01-13T05:30:02.131Z,4.32
2023-01-13T05:32:29.242Z,4.90
2023-01-13T05:34:56.515Z,4.80
2023-01-13T05:37:24.543Z,4.13
2023-01-13T05:40:10.388Z,5.25
2023-01-13T05:42:56.047Z,4.72
2023-01-13T05:45:23.561Z,7.13
2023-01-13T05:47:50.873Z,6.20
2023-01-13T05:50:18.259Z,5.50
2023-01-13T05:52:45.384Z,5.60
2023-01-13T05:55:12.779Z,4.90
2023-01-13T05:57:40.033Z,4.90
2023-01-13T06:00:07.887Z,4.95
2023-01-13T06:02:40.971Z,5.05
2023-01-13T06:05:08.819Z,4.65
2023-01-13T06:07:35.870Z,4.60
2023-01-13T06:10:02.997Z,4.65
2023-01-13T06:12:30.029Z,5.10
2023-01-13T06:14:56.981Z,5.50
2023-01-13T06:17:24.070Z,7.00
2023-01-13T06:19:53.597Z,7.13
2023-01-13T06:22:27.170Z,5.80
2023-01-13T06:27:23.262Z,4.90
2023-01-13T06:29:50.342Z,5.43
2023-01-13T06:32:28.722Z,5.43
2023-01-13T06:35:00.839Z,5.72
2023-01-13T06:37:30.697Z,6.25
2023-01-13T06:40:00.567Z,6.35
2023-01-13T06:42:48.284Z,5.47
2023-01-13T06:45:15.499Z,6.03
2023-01-13T06:47:43.569Z,6.30
2023-01-13T06:50:11.570Z,5.75
2023-01-13T06:52:38.660Z,6.53
2023-01-13T06:55:06.132Z,5.57
2023-01-13T06:57:33.247Z,5.53
2023-01-13T07:00:01.341Z,5.45
2023-01-13T07:02:28.703Z,5.85
2023-01-13T07:04:55.881Z,5.50
2023-01-13T07:07:23.068Z,5.57
2023-01-13T07:09:50.074Z,5.55
2023-01-13T07:12:17.155Z,6.32
2023-01-13T07:15:02.786Z,6.03
2023-01-13T07:17:29.868Z,5.45
2023-01-13T07:19:58.160Z,6.03
2023-01-13T07:22:25.309Z,5.93
2023-01-13T07:24:52.349Z,6.18
2023-01-13T07:27:19.493Z,6.75
2023-01-13T07:29:46.524Z,6.47
2023-01-13T07:32:13.675Z,6.95
2023-01-13T07:34:40.723Z,6.85
2023-01-13T07:37:07.903Z,7.15
2023-01-13T07:39:34.948Z,6.53
2023-01-13T07:42:20.534Z,6.53
2023-01-13T07:44:48.850Z,6.18
2023-01-13T07:47:16.351Z,6.15
2023-01-13T07:49:43.552Z,5.68
2023-01-13T07:52:10.749Z,7.38
2023-01-13T07:54:41.020Z,7.55
2023-01-13T07:57:09.154Z,6.93
2023-01-13T07:59:36.408Z,6.32
2023-01-13T08:02:03.733Z,7.18
2023-01-13T08:04:31.028Z,7.85
2023-01-13T08:06:58.215Z,8.40
2023-01-13T08:09:25.488Z,10.23
2023-01-13T08:12:15.097Z,8.80
2023-01-13T08:14:42.632Z,9.95
2023-01-13T08:17:10.176Z,9.70
2023-01-13T08:19:37.297Z,9.48
2023-01-13T08:22:04.354Z,8.88
2023-01-13T08:24:31.643Z,8.00
2023-01-13T08:26:58.726Z,7.57
2023-01-13T08:29:28.724Z,8.13
2023-01-13T08:33:03.293Z,9.38
2023-01-13T08:35:30.417Z,8.52
2023-01-13T08:37:57.433Z,8.68
2023-01-13T08:40:24.725Z,7.82
2023-01-13T08:42:53.077Z,7.57
2023-01-13T08:45:20.201Z,5.40
2023-01-13T08:47:47.114Z,8.10
2023-01-13T08:50:15.067Z,5.40
2023-01-13T08:52:42.271Z,7.88
2023-01-13T08:55:10.168Z,8.40
2023-01-13T08:57:37.694Z,12.48
2023-01-13T09:00:07.381Z,11.70
2023-01-13T09:02:34.823Z,15.30
2023-01-13T09:05:04.070Z,9.18
2023-01-13T09:07:31.586Z,10.27
2023-01-13T09:09:58.876Z,9.30
2023-01-13T09:12:44.693Z,9.20
2023-01-13T09:15:12.977Z,10.90
2023-01-13T09:17:40.219Z,9.90
2023-01-13T09:20:07.608Z,9.77
2023-01-13T09:22:36.502Z,11.13
2023-01-13T09:25:04.614Z,11.50
2023-01-13T09:27:31.623Z,12.65
2023-01-13T09:29:58.656Z,11.57
2023-01-13T09:32:25.747Z,11.90
2023-01-13T09:35:02.113Z,12.60
2023-01-13T09:37:36.049Z,10.85
2023-01-13T09:40:17.807Z,10.10
2023-01-13T09:43:19.534Z,9.68
2023-01-13T09:46:05.451Z,8.80
2023-01-13T09:48:52.334Z,11.85
2023-01-13T09:51:28.386Z,8.32
2023-01-13T09:54:03.159Z,7.55
2023-01-13T09:56:30.448Z,6.13
2023-01-13T09:58:58.169Z,5.85
2023-01-13T10:01:39.858Z,6.50
2023-01-13T10:04:12.353Z,11.00
2023-01-13T10:06:42.852Z,15.10
2023-01-13T10:09:44.215Z,15.40
2023-01-13T10:12:37.749Z,13.50
2023-01-13T10:15:05.326Z,10.23
2023-01-13T10:17:50.915Z,9.70
2023-01-13T10:20:36.459Z,9.68
2023-01-13T10:23:23.610Z,8.77
2023-01-13T10:26:06.729Z,7.18
2023-01-13T10:28:33.812Z,7.00
2023-01-13T10:31:00.918Z,6.75
2023-01-13T10:33:29.606Z,6.47
2023-01-13T10:36:03.579Z,6.40
2023-01-13T10:38:48.612Z,6.45
2023-01-13T10:41:15.667Z,6.32
2023-01-13T10:44:04.594Z,5.03
2023-01-13T10:46:49.976Z,5.93
2023-01-13T10:49:36.576Z,9.55
2023-01-13T10:52:23.902Z,6.70
2023-01-13T10:54:54.675Z,6.43
2023-01-13T10:57:27.272Z,4.68
2023-01-13T10:59:56.504Z,4.25
2023-01-13T11:02:30.245Z,4.18
2023-01-13T11:05:03.415Z,7.47
2023-01-13T11:07:34.974Z,6.47
2023-01-13T11:10:44.661Z,5.00
2023-01-13T11:13:17.487Z,4.20
2023-01-13T11:15:58.264Z,4.68
2023-01-13T11:19:12.489Z,5.13
2023-01-13T11:21:51.820Z,4.32
2023-01-13T11:24:22.123Z,4.55
2023-01-13T11:26:59.122Z,5.90
2023-01-13T11:29:45.453Z,5.47
2023-01-13T11:32:20.410Z,4.22
2023-01-13T11:34:55.367Z,4.13
2023-01-13T11:37:33.120Z,4.63
2023-01-13T11:40:15.562Z,4.85
2023-01-13T11:43:00.245Z,4.95
2023-01-13T11:45:44.912Z,5.30
2023-01-13T11:48:16.496Z,4.90
2023-01-13T11:50:56.030Z,5.13
2023-01-13T11:53:44.758Z,2.85
2023-01-13T11:56:44.311Z,3.53
2023-01-13T11:59:11.435Z,4.90
2023-01-13T12:02:09.261Z,5.45
2023-01-13T12:04:44.266Z,5.53
2023-01-13T12:07:22.183Z,4.38
2023-01-13T12:10:03.764Z,5.05
2023-01-13T12:12:58.864Z,5.00
2023-01-13T12:15:45.679Z,4.40
2023-01-13T12:18:54.858Z,4.30
2023-01-13T12:21:26.003Z,4.25
2023-01-13T12:24:13.563Z,4.18
2023-01-13T12:26:51.357Z,3.42
2023-01-13T12:29:29.787Z,3.28
2023-01-13T12:31:59.739Z,3.25
2023-01-13T12:34:44.881Z,3.30
2023-01-13T12:37:39.785Z,2.65
2023-01-13T12:40:22.974Z,2.70
2023-01-13T12:43:22.967Z,3.20
2023-01-13T12:45:50.210Z,2.80
2023-01-13T12:48:44.981Z,3.08
2023-01-13T12:51:29.176Z,3.47
2023-01-13T12:53:56.741Z,3.60
2023-01-13T12:56:44.012Z,3.58
2023-01-13T12:59:16.919Z,2.78
2023-01-13T13:01:46.331Z,3.53
2023-01-13T13:04:17.571Z,3.00
2023-01-13T13:06:56.188Z,1.90
2023-01-13T13:09:25.976Z,3.50
2023-01-13T13:11:59.041Z,2.50
2023-01-13T13:14:38.163Z,2.75
2023-01-13T13:17:28.507Z,2.97
2023-01-13T13:20:00.359Z,2.80
2023-01-13T13:22:27.409Z,2.58
2023-01-13T13:24:57.780Z,2.22
2023-01-13T13:27:44.329Z,2.55
2023-01-13T13:30:29.161Z,2.95
2023-01-13T13:33:23.769Z,2.50
2023-01-13T13:36:16.904Z,2.97
2023-01-13T13:39:08.572Z,3.50
2023-01-13T13:41:55.568Z,3.58
2023-01-13T13:44:59.325Z,3.25
2023-01-13T13:47:34.897Z,2.92
2023-01-13T13:50:09.170Z,2.60
2023-01-13T13:52:54.612Z,2.80
2023-01-13T13:55:28.069Z,2.92
2023-01-13T13:57:57.816Z,2.75
2023-01-13T14:00:29.693Z,2.88
2023-01-13T14:03:01.446Z,2.80
2023-01-13T14:05:31.302Z,2.67
2023-01-13T14:08:10.399Z,2.40
2023-01-13T14:10:40.430Z,2.63
2023-01-13T14:13:27.355Z,2.17
2023-01-13T14:15:58.801Z,2.40
2023-01-13T14:18:28.085Z,2.50
2023-01-13T14:21:15.459Z,2.97
2023-01-13T14:24:01.689Z,2.10
2023-01-13T14:26:32.256Z,2.60
2023-01-13T14:29:02.358Z,2.47
2023-01-13T14:31:30.731Z,2.90
2023-01-13T14:34:01.001Z,3.03
2023-01-13T14:36:34.143Z,3.00
2023-01-13T14:39:04.411Z,2.55
2023-01-13T14:41:34.380Z,2.50
2023-01-13T14:44:04.665Z,2.88
2023-01-13T14:46:39.059Z,2.50
2023-01-13T14:49:19.477Z,2.67
2023-01-13T14:51:46.828Z,2.38
2023-01-13T14:54:43.438Z,2.17
2023-01-13T14:57:24.750Z,2.50
2023-01-13T15:00:16.167Z,2.30
2023-01-13T15:02:58.522Z,2.30
2023-01-13T15:05:25.621Z,2.03
2023-01-13T15:07:52.608Z,2.97
2023-01-13T15:10:26.877Z,2.13
2023-01-13T15:12:56.338Z,2.35
2023-01-13T15:15:30.407Z,2.03
2023-01-13T15:17:57.672Z,2.17
2023-01-13T15:20:25.443Z,2.30
2023-01-13T15:22:52.876Z,2.15
2023-01-13T15:25:20.398Z,2.47
2023-01-13T15:27:51.117Z,3.20
2023-01-13T15:30:25.227Z,2.65
2023-01-13T15:32:55.321Z,3.10
2023-01-13T15:35:24.819Z,2.60
2023-01-13T15:37:52.473Z,2.50
2023-01-13T15:40:23.676Z,2.80
2023-01-13T15:43:09.407Z,2.75
2023-01-13T15:45:55.957Z,3.00
2023-01-13T15:48:25.214Z,2.55
2023-01-13T15:50:52.711Z,2.85
2023-01-13T15:53:20.743Z,2.55
2023-01-13T15:55:52.489Z,2.63
2023-01-13T15:58:24.334Z,2.78
2023-01-13T16:00:51.655Z,2.22
2023-01-13T16:03:18.732Z,2.45
2023-01-13T16:05:46.072Z,2.33
2023-01-13T16:08:21.412Z,2.13
2023-01-13T16:10:49.601Z,2.75
2023-01-13T16:13:18.042Z,2.20
2023-01-13T16:15:48.732Z,2.30
2023-01-13T16:18:21.391Z,2.05
2023-01-13T16:20:52.893Z,2.05
2023-01-13T16:23:20.605Z,2.33
2023-01-13T16:25:47.957Z,2.13
2023-01-13T16:28:24.574Z,2.80
2023-01-13T16:30:52.101Z,3.00
2023-01-13T16:33:19.147Z,2.20
2023-01-13T16:36:10.223Z,2.10
2023-01-13T16:38:33.425Z,2.10
2023-01-13T16:41:00.485Z,2.35
2023-01-13T16:43:28.041Z,2.50
2023-01-13T16:45:55.123Z,2.30
2023-01-13T16:48:22.892Z,2.75
2023-01-13T16:50:50.113Z,2.50
2023-01-13T16:53:17.286Z,2.70
2023-01-13T16:55:45.103Z,2.70
2023-01-13T16:58:17.680Z,2.15
2023-01-13T17:00:47.115Z,3.10
2023-01-13T17:03:15.431Z,3.20
2023-01-13T17:05:44.284Z,2.60
2023-01-13T17:08:17.938Z,2.75
2023-01-13T17:10:46.550Z,2.70
2023-01-13T17:13:17.449Z,2.70
2023-01-13T17:15:46.268Z,7.75
2023-01-13T17:18:13.689Z,8.27
2023-01-13T17:20:41.210Z,7.90
2023-01-13T17:23:08.545Z,9.90
2023-01-13T17:25:35.727Z,9.82
2023-01-13T17:28:03.132Z,8.73
2023-01-13T17:30:30.277Z,9.00
2023-01-13T17:32:57.302Z,8.23
2023-01-13T17:35:26.036Z,8.10
2023-01-13T17:37:54.016Z,7.88
2023-01-13T17:40:21.503Z,7.38
2023-01-13T17:42:48.565Z,8.48
2023-01-13T17:45:16.497Z,10.77
2023-01-13T17:47:43.603Z,10.18
2023-01-13T17:50:10.924Z,9.48
2023-01-13T17:52:37.973Z,9.75
2023-01-13T17:55:05.397Z,9.88
2023-01-13T17:57:32.362Z,8.60
2023-01-13T17:59:59.741Z,8.48
2023-01-13T18:02:26.955Z,8.40
2023-01-13T18:04:54.233Z,8.32
2023-01-13T18:07:21.396Z,8.13
2023-01-13T18:09:48.496Z,8.63
2023-01-13T18:12:15.515Z,8.15
2023-01-13T18:14:42.903Z,8.32
2023-01-13T18:17:10.237Z,8.55
2023-01-13T18:19:56.313Z,11.05
2023-01-13T18:22:41.773Z,10.70
2023-01-13T18:25:33.112Z,11.85
2023-01-13T18:28:02.783Z,11.27
2023-01-13T18:30:30.112Z,10.43
2023-01-13T18:32:57.946Z,10.27
2023-01-13T18:35:25.138Z,11.57
2023-01-13T18:37:52.368Z,11.48
2023-01-13T18:40:19.659Z,11.98
2023-01-13T18:42:54.235Z,11.32
2023-01-13T18:45:29.825Z,11.48
2023-01-13T18:48:00.089Z,10.60
2023-01-13T18:50:28.584Z,10.13
2023-01-13T18:52:55.808Z,10.07
2023-01-13T18:55:23.564Z,8.82
2023-01-13T18:57:51.533Z,9.35
2023-01-13T19:00:20.686Z,8.50
2023-01-13T19:02:50.889Z,10.45
2023-01-13T19:05:18.459Z,9.00
2023-01-13T19:07:50.807Z,8.93
2023-01-13T19:10:18.441Z,9.17
2023-01-13T19:12:45.739Z,8.55
2023-01-13T19:15:13.152Z,9.80
2023-01-13T19:17:40.447Z,10.20
2023-01-13T19:20:07.996Z,9.38
2023-01-13T19:22:36.045Z,9.77
2023-01-13T19:25:04.413Z,8.75
2023-01-13T19:27:31.967Z,10.38
2023-01-13T19:30:01.131Z,9.23
2023-01-13T19:32:31.065Z,10.98
2023-01-13T19:34:59.894Z,10.20
2023-01-13T19:37:31.696Z,10.93
2023-01-13T19:40:00.257Z,11.60
2023-01-13T19:42:46.706Z,10.93
2023-01-13T19:45:28.603Z,11.50
2023-01-13T19:47:58.625Z,12.50
2023-01-13T19:50:27.382Z,12.30
2023-01-13T19:52:55.705Z,11.75
2023-01-13T19:55:24.688Z,13.18
2023-01-13T19:57:52.851Z,10.68
2023-01-13T20:00:22.984Z,10.02
2023-01-13T20:02:53.502Z,9.85
2023-01-13T20:05:25.532Z,9.20
2023-01-13T20:07:54.865Z,10.43
2023-01-13T20:10:24.679Z,9.40
2023-01-13T20:12:52.536Z,9.13
2023-01-13T20:15:20.974Z,9.18
2023-01-13T20:17:49.503Z,8.45
2023-01-13T20:20:18.824Z,9.13
2023-01-13T20:22:48.735Z,9.50
2023-01-13T20:25:17.771Z,9.00
2023-01-13T20:27:47.906Z,9.55
2023-01-13T20:30:15.719Z,9.88
2023-01-13T20:32:44.316Z,10.50
2023-01-13T20:35:15.518Z,12.57
2023-01-13T20:37:44.124Z,12.73
2023-01-13T20:40:16.095Z,14.77
2023-01-13T20:42:46.548Z,17.02
2023-01-13T20:45:18.763Z,15.20
2023-01-13T20:47:47.090Z,15.70
2023-01-13T20:50:15.880Z,16.23
2023-01-13T20:52:44.240Z,15.85
2023-01-13T20:55:13.151Z,15.65
2023-01-13T20:57:42.108Z,16.25
2023-01-13T21:00:11.464Z,14.43
2023-01-13T21:02:41.209Z,12.93
2023-01-13T21:05:10.557Z,12.90
2023-01-13T21:07:38.177Z,11.80
2023-01-13T21:10:06.117Z,11.43
2023-01-13T21:12:52.661Z,12.57
2023-01-13T21:15:23.120Z,14.38
2023-01-13T21:18:11.157Z,14.80
2023-01-13T21:20:39.749Z,14.63
2023-01-13T21:23:08.106Z,14.20
2023-01-13T21:25:40.609Z,12.68
2023-01-13T21:28:12.431Z,12.98
2023-01-13T21:30:40.681Z,11.82
2023-01-13T21:33:15.254Z,13.10
2023-01-13T21:35:43.531Z,12.43
2023-01-13T21:38:12.612Z,12.52
2023-01-13T21:40:40.674Z,11.93
2023-01-13T21:43:31.439Z,11.63
2023-01-13T21:46:17.542Z,11.88
2023-01-13T21:48:45.120Z,12.13
2023-01-13T21:51:12.533Z,12.00
2023-01-13T21:53:39.805Z,12.32
2023-01-13T21:56:08.097Z,13.68
2023-01-13T21:58:35.269Z,15.27
2023-01-13T22:01:03.259Z,14.40
2023-01-13T22:03:30.690Z,13.63
2023-01-13T22:05:58.115Z,13.02
2023-01-13T22:08:25.057Z,12.70
2023-01-13T22:10:58.412Z,12.63
2023-01-13T22:13:46.233Z,12.95
2023-01-13T22:16:15.688Z,12.80
2023-01-13T22:18:43.521Z,14.30
2023-01-13T22:21:11.276Z,11.57
2023-01-13T22:23:38.548Z,11.73
2023-01-13T22:26:07.377Z,11.43
2023-01-13T22:28:40.720Z,12.48
2023-01-13T22:33:35.705Z,11.10
2023-01-13T22:36:03.142Z,11.48
2023-01-13T22:38:30.406Z,12.50
2023-01-13T22:40:58.583Z,11.82
2023-01-13T22:43:27.233Z,11.38
2023-01-13T22:46:08.980Z,12.18
2023-01-13T22:48:36.932Z,12.93
2023-01-13T22:51:08.628Z,12.10
2023-01-13T22:53:35.869Z,12.50
2023-01-13T22:56:04.051Z,11.80
2023-01-13T22:58:31.517Z,10.10
2023-01-13T23:01:10.108Z,11.20
2023-01-13T23:03:38.963Z,10.15
2023-01-13T23:06:06.331Z,10.20
2023-01-13T23:08:34.510Z,10.68
2023-01-13T23:11:07.442Z,8.73
2023-01-13T23:13:36.162Z,9.20
2023-01-13T23:16:06.790Z,8.75
2023-01-13T23:18:34.337Z,8.48
2023-01-13T23:21:06.984Z,9.15
2023-01-13T23:23:35.011Z,9.27
2023-01-13T23:26:03.146Z,7.93
2023-01-13T23:28:31.324Z,7.85
2023-01-13T23:30:58.624Z,8.05
2023-01-13T23:33:26.226Z,7.45
2023-01-13T23:36:02.047Z,7.32
2023-01-13T23:38:30.092Z,7.30
2023-01-13T23:40:57.619Z,7.82
2023-01-13T23:43:26.660Z,6.65
2023-01-13T23:46:05.655Z,6.25
2023-01-13T23:48:33.346Z,6.85
2023-01-13T23:51:02.342Z,7.25
2023-01-13T23:53:33.544Z,7.28
2023-01-13T23:56:02.217Z,7.07
2023-01-13T23:58:30.067Z,7.45
